sensor_id;sensor_type;location;lat;lon;timestamp;P1;durP1;ratioP1;P2;durP2;ratioP2
78342;SDS011;67618;52.444;21.192;2023-04-06T00:03:33;23.50;;;11.00;;
78342;SDS011;67618;52.444;21.192;2023-04-06T00:08:35;44.30;;;20.40;;
78342;SDS011;67618;52.444;21.192;2023-04-06T00:13:36;64.30;;;31.90;;
78342;SDS011;67618;52.444;21.192;2023-04-06T00:18:38;37.00;;;18.80;;
78342;SDS011;67618;52.444;21.192;2023-04-06T00:23:40;35.70;;;18.30;;
78342;SDS011;67618;52.444;21.192;2023-04-06T00:28:42;25.90;;;12.80;;
78342;SDS011;67618;52.444;21.192;2023-04-06T00:33:43;33.10;;;15.70;;
78342;SDS011;67618;52.444;21.192;2023-04-06T00:38:45;9.60;;;5.90;;
78342;SDS011;67618;52.444;21.192;2023-04-06T00:43:46;8.60;;;4.40;;
78342;SDS011;67618;52.444;21.192;2023-04-06T00:48:48;7.10;;;4.00;;
78342;SDS011;67618;52.444;21.192;2023-04-06T00:53:49;8.70;;;4.30;;
78342;SDS011;67618;52.444;21.192;2023-04-06T00:58:51;6.40;;;2.40;;
78342;SDS011;67618;52.444;21.192;2023-04-06T01:03:53;9.90;;;4.80;;
78342;SDS011;67618;52.444;21.192;2023-04-06T01:08:55;8.50;;;5.90;;
78342;SDS011;67618;52.444;21.192;2023-04-06T01:13:56;8.70;;;4.60;;
78342;SDS011;67618;52.444;21.192;2023-04-06T01:18:58;8.00;;;4.10;;
78342;SDS011;67618;52.444;21.192;2023-04-06T01:23:59;9.00;;;5.00;;
78342;SDS011;67618;52.444;21.192;2023-04-06T01:29:01;7.30;;;3.80;;
78342;SDS011;67618;52.444;21.192;2023-04-06T01:34:03;6.10;;;4.10;;
78342;SDS011;67618;52.444;21.192;2023-04-06T01:39:05;10.60;;;4.10;;
78342;SDS011;67618;52.444;21.192;2023-04-06T01:44:07;7.90;;;4.30;;
78342;SDS011;67618;52.444;21.192;2023-04-06T01:49:08;7.50;;;4.30;;
78342;SDS011;67618;52.444;21.192;2023-04-06T01:54:09;9.00;;;4.40;;
78342;SDS011;67618;52.444;21.192;2023-04-06T01:59:11;9.00;;;3.90;;
78342;SDS011;67618;52.444;21.192;2023-04-06T02:04:12;7.30;;;4.90;;
78342;SDS011;67618;52.444;21.192;2023-04-06T02:09:15;7.70;;;4.10;;
78342;SDS011;67618;52.444;21.192;2023-04-06T02:14:16;9.50;;;4.40;;
78342;SDS011;67618;52.444;21.192;2023-04-06T02:19:18;7.10;;;4.30;;
78342;SDS011;67618;52.444;21.192;2023-04-06T02:24:19;8.40;;;4.90;;
78342;SDS011;67618;52.444;21.192;2023-04-06T02:29:21;8.80;;;5.50;;
78342;SDS011;67618;52.444;21.192;2023-04-06T02:34:22;7.30;;;4.40;;
78342;SDS011;67618;52.444;21.192;2023-04-06T02:39:24;8.40;;;4.00;;
78342;SDS011;67618;52.444;21.192;2023-04-06T02:44:25;9.80;;;4.40;;
78342;SDS011;67618;52.444;21.192;2023-04-06T02:49:27;10.60;;;4.90;;
78342;SDS011;67618;52.444;21.192;2023-04-06T02:54:28;8.00;;;4.20;;
78342;SDS011;67618;52.444;21.192;2023-04-06T02:59:29;10.70;;;5.00;;
78342;SDS011;67618;52.444;21.192;2023-04-06T03:04:31;9.30;;;4.60;;
78342;SDS011;67618;52.444;21.192;2023-04-06T03:09:32;9.40;;;4.70;;
78342;SDS011;67618;52.444;21.192;2023-04-06T03:14:34;11.00;;;5.70;;
78342;SDS011;67618;52.444;21.192;2023-04-06T03:19:36;8.10;;;5.10;;
78342;SDS011;67618;52.444;21.192;2023-04-06T03:24:37;9.00;;;4.90;;
78342;SDS011;67618;52.444;21.192;2023-04-06T03:29:38;10.80;;;4.70;;
78342;SDS011;67618;52.444;21.192;2023-04-06T03:34:40;11.70;;;5.10;;
78342;SDS011;67618;52.444;21.192;2023-04-06T03:39:41;10.20;;;5.40;;
78342;SDS011;67618;52.444;21.192;2023-04-06T03:44:43;10.10;;;6.20;;
78342;SDS011;67618;52.444;21.192;2023-04-06T03:49:44;9.90;;;5.60;;
78342;SDS011;67618;52.444;21.192;2023-04-06T03:54:45;9.10;;;4.80;;
78342;SDS011;67618;52.444;21.192;2023-04-06T03:59:47;3.50;;;2.10;;
78342;SDS011;67618;52.444;21.192;2023-04-06T04:04:48;7.70;;;4.40;;
78342;SDS011;67618;52.444;21.192;2023-04-06T04:09:50;11.20;;;5.20;;
78342;SDS011;67618;52.444;21.192;2023-04-06T04:14:51;9.50;;;5.40;;
78342;SDS011;67618;52.444;21.192;2023-04-06T04:19:53;8.20;;;4.70;;
78342;SDS011;67618;52.444;21.192;2023-04-06T04:24:54;10.00;;;4.60;;
78342;SDS011;67618;52.444;21.192;2023-04-06T04:29:56;7.10;;;4.30;;
78342;SDS011;67618;52.444;21.192;2023-04-06T04:34:57;8.10;;;3.90;;
78342;SDS011;67618;52.444;21.192;2023-04-06T04:39:58;8.00;;;4.00;;
78342;SDS011;67618;52.444;21.192;2023-04-06T04:45:00;9.10;;;4.90;;
78342;SDS011;67618;52.444;21.192;2023-04-06T04:50:01;6.70;;;3.60;;
78342;SDS011;67618;52.444;21.192;2023-04-06T04:55:06;5.60;;;2.80;;
78342;SDS011;67618;52.444;21.192;2023-04-06T05:00:08;9.80;;;4.50;;
78342;SDS011;67618;52.444;21.192;2023-04-06T05:05:10;8.80;;;5.10;;
78342;SDS011;67618;52.444;21.192;2023-04-06T05:10:11;7.60;;;3.50;;
78342;SDS011;67618;52.444;21.192;2023-04-06T05:15:12;5.90;;;3.10;;
78342;SDS011;67618;52.444;21.192;2023-04-06T05:20:14;5.60;;;3.40;;
78342;SDS011;67618;52.444;21.192;2023-04-06T05:25:15;8.20;;;3.90;;
78342;SDS011;67618;52.444;21.192;2023-04-06T05:30:17;6.00;;;3.20;;
78342;SDS011;67618;52.444;21.192;2023-04-06T05:35:19;6.20;;;3.40;;
78342;SDS011;67618;52.444;21.192;2023-04-06T05:40:20;3.30;;;1.90;;
78342;SDS011;67618;52.444;21.192;2023-04-06T05:45:21;4.60;;;2.70;;
78342;SDS011;67618;52.444;21.192;2023-04-06T05:50:23;3.40;;;2.00;;
78342;SDS011;67618;52.444;21.192;2023-04-06T05:55:24;4.90;;;2.70;;
78342;SDS011;67618;52.444;21.192;2023-04-06T06:00:26;8.00;;;4.30;;
78342;SDS011;67618;52.444;21.192;2023-04-06T06:05:28;7.50;;;4.00;;
78342;SDS011;67618;52.444;21.192;2023-04-06T06:10:29;5.20;;;3.10;;
78342;SDS011;67618;52.444;21.192;2023-04-06T06:15:31;7.40;;;4.20;;
78342;SDS011;67618;52.444;21.192;2023-04-06T06:20:32;4.40;;;2.40;;
78342;SDS011;67618;52.444;21.192;2023-04-06T06:25:34;6.60;;;3.10;;
78342;SDS011;67618;52.444;21.192;2023-04-06T06:30:35;6.80;;;3.20;;
78342;SDS011;67618;52.444;21.192;2023-04-06T06:35:37;5.40;;;3.00;;
78342;SDS011;67618;52.444;21.192;2023-04-06T06:40:39;5.20;;;2.90;;
78342;SDS011;67618;52.444;21.192;2023-04-06T06:55:44;3.70;;;2.30;;
78342;SDS011;67618;52.444;21.192;2023-04-06T07:00:46;6.10;;;2.60;;
78342;SDS011;67618;52.444;21.192;2023-04-06T07:05:48;5.70;;;2.50;;
78342;SDS011;67618;52.444;21.192;2023-04-06T07:10:54;4.20;;;2.50;;
78342;SDS011;67618;52.444;21.192;2023-04-06T07:20:58;3.30;;;1.80;;
78342;SDS011;67618;52.444;21.192;2023-04-06T07:26:00;5.40;;;2.80;;
78342;SDS011;67618;52.444;21.192;2023-04-06T07:31:01;2.50;;;2.00;;
78342;SDS011;67618;52.444;21.192;2023-04-06T07:36:03;3.80;;;1.80;;
78342;SDS011;67618;52.444;21.192;2023-04-06T07:41:04;3.90;;;2.20;;
78342;SDS011;67618;52.444;21.192;2023-04-06T07:46:06;5.50;;;2.40;;
78342;SDS011;67618;52.444;21.192;2023-04-06T07:51:07;3.10;;;1.50;;
78342;SDS011;67618;52.444;21.192;2023-04-06T07:56:10;3.90;;;2.70;;
78342;SDS011;67618;52.444;21.192;2023-04-06T08:01:11;5.00;;;2.20;;
78342;SDS011;67618;52.444;21.192;2023-04-06T08:06:13;3.60;;;2.20;;
78342;SDS011;67618;52.444;21.192;2023-04-06T08:11:14;3.80;;;2.20;;
78342;SDS011;67618;52.444;21.192;2023-04-06T08:16:16;3.20;;;2.30;;
78342;SDS011;67618;52.444;21.192;2023-04-06T08:21:17;3.40;;;2.20;;
78342;SDS011;67618;52.444;21.192;2023-04-06T08:26:19;4.40;;;1.80;;
78342;SDS011;67618;52.444;21.192;2023-04-06T08:31:20;5.70;;;2.90;;
78342;SDS011;67618;52.444;21.192;2023-04-06T08:36:22;4.20;;;2.30;;
78342;SDS011;67618;52.444;21.192;2023-04-06T08:41:24;3.70;;;2.40;;
78342;SDS011;67618;52.444;21.192;2023-04-06T08:46:26;6.10;;;2.40;;
78342;SDS011;67618;52.444;21.192;2023-04-06T08:51:32;4.60;;;2.50;;
78342;SDS011;67618;52.444;21.192;2023-04-06T08:56:36;6.30;;;2.70;;
78342;SDS011;67618;52.444;21.192;2023-04-06T09:01:39;3.40;;;2.20;;
78342;SDS011;67618;52.444;21.192;2023-04-06T09:06:42;4.10;;;2.00;;
78342;SDS011;67618;52.444;21.192;2023-04-06T09:11:47;16.00;;;13.30;;
78342;SDS011;67618;52.444;21.192;2023-04-06T09:16:50;12.60;;;10.00;;
78342;SDS011;67618;52.444;21.192;2023-04-06T09:22:04;3.60;;;3.10;;
78342;SDS011;67618;52.444;21.192;2023-04-06T09:27:08;13.00;;;11.20;;
78342;SDS011;67618;52.444;21.192;2023-04-06T09:32:10;11.80;;;4.20;;
78342;SDS011;67618;52.444;21.192;2023-04-06T09:37:16;5.50;;;4.00;;
78342;SDS011;67618;52.444;21.192;2023-04-06T09:42:25;5.50;;;3.00;;
78342;SDS011;67618;52.444;21.192;2023-04-06T09:47:27;7.40;;;4.80;;
78342;SDS011;67618;52.444;21.192;2023-04-06T09:52:33;28.20;;;6.90;;
78342;SDS011;67618;52.444;21.192;2023-04-06T09:57:45;16.30;;;7.00;;
78342;SDS011;67618;52.444;21.192;2023-04-06T10:08:17;9.50;;;5.30;;
78342;SDS011;67618;52.444;21.192;2023-04-06T10:13:20;6.50;;;3.30;;
78342;SDS011;67618;52.444;21.192;2023-04-06T10:18:21;33.30;;;8.90;;
78342;SDS011;67618;52.444;21.192;2023-04-06T10:23:37;82.00;;;27.40;;
78342;SDS011;67618;52.444;21.192;2023-04-06T10:28:43;18.30;;;8.40;;
78342;SDS011;67618;52.444;21.192;2023-04-06T10:33:53;16.90;;;5.10;;
78342;SDS011;67618;52.444;21.192;2023-04-06T10:39:00;10.20;;;4.70;;
78342;SDS011;67618;52.444;21.192;2023-04-06T10:44:03;5.70;;;3.20;;
78342;SDS011;67618;52.444;21.192;2023-04-06T10:49:11;8.50;;;3.60;;
78342;SDS011;67618;52.444;21.192;2023-04-06T10:54:13;17.80;;;7.30;;
78342;SDS011;67618;52.444;21.192;2023-04-06T10:59:20;11.10;;;7.50;;
78342;SDS011;67618;52.444;21.192;2023-04-06T11:04:24;17.80;;;5.20;;
78342;SDS011;67618;52.444;21.192;2023-04-06T11:09:26;22.70;;;12.80;;
78342;SDS011;67618;52.444;21.192;2023-04-06T11:14:29;413.30;;;168.20;;
78342;SDS011;67618;52.444;21.192;2023-04-06T11:19:31;16.90;;;9.10;;
78342;SDS011;67618;52.444;21.192;2023-04-06T11:24:32;18.10;;;4.90;;
78342;SDS011;67618;52.444;21.192;2023-04-06T11:29:34;7.10;;;4.40;;
78342;SDS011;67618;52.444;21.192;2023-04-06T11:34:38;5.00;;;2.40;;
78342;SDS011;67618;52.444;21.192;2023-04-06T11:39:51;5.10;;;2.60;;
78342;SDS011;67618;52.444;21.192;2023-04-06T11:44:55;30.10;;;13.50;;
78342;SDS011;67618;52.444;21.192;2023-04-06T11:50:07;34.90;;;17.70;;
78342;SDS011;67618;52.444;21.192;2023-04-06T11:55:13;21.90;;;15.80;;
78342;SDS011;67618;52.444;21.192;2023-04-06T12:00:16;6.50;;;3.50;;
78342;SDS011;67618;52.444;21.192;2023-04-06T12:05:18;15.90;;;8.20;;
78342;SDS011;67618;52.444;21.192;2023-04-06T12:10:20;8.90;;;3.30;;
78342;SDS011;67618;52.444;21.192;2023-04-06T12:15:21;10.40;;;3.10;;
78342;SDS011;67618;52.444;21.192;2023-04-06T12:20:22;14.80;;;10.70;;
78342;SDS011;67618;52.444;21.192;2023-04-06T12:25:24;33.70;;;6.80;;
78342;SDS011;67618;52.444;21.192;2023-04-06T12:30:25;8.80;;;3.10;;
78342;SDS011;67618;52.444;21.192;2023-04-06T12:35:27;11.40;;;5.20;;
78342;SDS011;67618;52.444;21.192;2023-04-06T12:40:28;69.60;;;15.70;;
78342;SDS011;67618;52.444;21.192;2023-04-06T12:45:30;31.90;;;14.70;;
78342;SDS011;67618;52.444;21.192;2023-04-06T12:50:32;6.40;;;3.20;;
78342;SDS011;67618;52.444;21.192;2023-04-06T12:55:33;5.30;;;2.80;;
78342;SDS011;67618;52.444;21.192;2023-04-06T13:00:35;6.10;;;3.40;;
78342;SDS011;67618;52.444;21.192;2023-04-06T13:05:43;11.40;;;4.00;;
78342;SDS011;67618;52.444;21.192;2023-04-06T13:10:49;4.00;;;2.40;;
78342;SDS011;67618;52.444;21.192;2023-04-06T13:15:52;9.10;;;5.50;;
78342;SDS011;67618;52.444;21.192;2023-04-06T13:20:55;38.70;;;15.80;;
78342;SDS011;67618;52.444;21.192;2023-04-06T13:26:04;9.70;;;4.00;;
78342;SDS011;67618;52.444;21.192;2023-04-06T13:31:07;32.30;;;19.50;;
78342;SDS011;67618;52.444;21.192;2023-04-06T13:36:09;9.00;;;4.60;;
78342;SDS011;67618;52.444;21.192;2023-04-06T13:41:17;3.00;;;2.10;;
78342;SDS011;67618;52.444;21.192;2023-04-06T13:46:22;3.60;;;2.20;;
78342;SDS011;67618;52.444;21.192;2023-04-06T13:51:25;5.20;;;3.10;;
78342;SDS011;67618;52.444;21.192;2023-04-06T13:56:27;4.70;;;3.40;;
78342;SDS011;67618;52.444;21.192;2023-04-06T14:01:29;41.90;;;12.80;;
78342;SDS011;67618;52.444;21.192;2023-04-06T14:06:30;5.80;;;3.10;;
78342;SDS011;67618;52.444;21.192;2023-04-06T14:11:32;39.00;;;17.00;;
78342;SDS011;67618;52.444;21.192;2023-04-06T14:16:33;8.00;;;4.90;;
78342;SDS011;67618;52.444;21.192;2023-04-06T14:21:34;5.90;;;3.50;;
78342;SDS011;67618;52.444;21.192;2023-04-06T14:26:36;6.10;;;3.90;;
78342;SDS011;67618;52.444;21.192;2023-04-06T14:31:38;11.00;;;5.50;;
78342;SDS011;67618;52.444;21.192;2023-04-06T14:36:39;12.60;;;7.90;;
78342;SDS011;67618;52.444;21.192;2023-04-06T14:41:41;7.10;;;3.70;;
78342;SDS011;67618;52.444;21.192;2023-04-06T14:46:42;8.30;;;3.50;;
78342;SDS011;67618;52.444;21.192;2023-04-06T14:51:44;6.20;;;3.30;;
78342;SDS011;67618;52.444;21.192;2023-04-06T14:56:45;4.70;;;3.00;;
78342;SDS011;67618;52.444;21.192;2023-04-06T15:01:46;13.80;;;4.80;;
78342;SDS011;67618;52.444;21.192;2023-04-06T15:06:48;5.20;;;3.50;;
78342;SDS011;67618;52.444;21.192;2023-04-06T15:11:49;6.90;;;3.80;;
78342;SDS011;67618;52.444;21.192;2023-04-06T15:16:51;6.50;;;3.70;;
78342;SDS011;67618;52.444;21.192;2023-04-06T15:21:52;7.50;;;4.20;;
78342;SDS011;67618;52.444;21.192;2023-04-06T15:26:53;4.80;;;3.20;;
78342;SDS011;67618;52.444;21.192;2023-04-06T15:31:56;7.20;;;4.10;;
78342;SDS011;67618;52.444;21.192;2023-04-06T15:37:00;5.10;;;3.20;;
78342;SDS011;67618;52.444;21.192;2023-04-06T15:42:02;7.60;;;3.70;;
78342;SDS011;67618;52.444;21.192;2023-04-06T15:47:04;7.40;;;3.90;;
78342;SDS011;67618;52.444;21.192;2023-04-06T15:52:06;22.60;;;8.90;;
78342;SDS011;67618;52.444;21.192;2023-04-06T15:57:07;12.90;;;5.30;;
78342;SDS011;67618;52.444;21.192;2023-04-06T16:02:08;12.40;;;6.80;;
78342;SDS011;67618;52.444;21.192;2023-04-06T16:07:10;11.30;;;6.70;;
78342;SDS011;67618;52.444;21.192;2023-04-06T16:12:11;18.50;;;9.80;;
78342;SDS011;67618;52.444;21.192;2023-04-06T16:17:13;7.30;;;4.20;;
78342;SDS011;67618;52.444;21.192;2023-04-06T16:22:14;9.80;;;4.70;;
78342;SDS011;67618;52.444;21.192;2023-04-06T16:27:15;7.20;;;4.30;;
78342;SDS011;67618;52.444;21.192;2023-04-06T16:32:17;13.40;;;7.50;;
78342;SDS011;67618;52.444;21.192;2023-04-06T16:37:19;8.60;;;4.50;;
78342;SDS011;67618;52.444;21.192;2023-04-06T16:42:20;38.70;;;17.00;;
78342;SDS011;67618;52.444;21.192;2023-04-06T16:47:21;24.70;;;11.60;;
78342;SDS011;67618;52.444;21.192;2023-04-06T16:52:23;28.80;;;13.40;;
78342;SDS011;67618;52.444;21.192;2023-04-06T16:57:25;20.20;;;13.00;;
78342;SDS011;67618;52.444;21.192;2023-04-06T17:02:30;31.10;;;16.70;;
78342;SDS011;67618;52.444;21.192;2023-04-06T17:07:32;13.40;;;8.70;;
78342;SDS011;67618;52.444;21.192;2023-04-06T17:12:35;9.90;;;6.10;;
78342;SDS011;67618;52.444;21.192;2023-04-06T17:17:37;11.90;;;7.50;;
78342;SDS011;67618;52.444;21.192;2023-04-06T17:22:39;8.90;;;6.60;;
78342;SDS011;67618;52.444;21.192;2023-04-06T17:27:40;45.80;;;25.90;;
78342;SDS011;67618;52.444;21.192;2023-04-06T17:32:42;19.40;;;11.50;;
78342;SDS011;67618;52.444;21.192;2023-04-06T17:37:44;88.80;;;41.80;;
78342;SDS011;67618;52.444;21.192;2023-04-06T17:42:45;120.80;;;42.80;;
78342;SDS011;67618;52.444;21.192;2023-04-06T17:47:47;143.90;;;47.90;;
78342;SDS011;67618;52.444;21.192;2023-04-06T17:52:48;342.70;;;106.20;;
78342;SDS011;67618;52.444;21.192;2023-04-06T17:57:52;96.90;;;32.20;;
78342;SDS011;67618;52.444;21.192;2023-04-06T18:02:53;57.50;;;20.00;;
78342;SDS011;67618;52.444;21.192;2023-04-06T18:07:56;41.30;;;15.80;;
78342;SDS011;67618;52.444;21.192;2023-04-06T18:12:57;19.60;;;9.30;;
78342;SDS011;67618;52.444;21.192;2023-04-06T18:18:01;16.40;;;8.50;;
78342;SDS011;67618;52.444;21.192;2023-04-06T18:23:03;19.00;;;8.90;;
78342;SDS011;67618;52.444;21.192;2023-04-06T18:28:04;50.40;;;24.00;;
78342;SDS011;67618;52.444;21.192;2023-04-06T18:33:06;118.00;;;44.10;;
78342;SDS011;67618;52.444;21.192;2023-04-06T18:38:07;241.50;;;59.30;;
78342;SDS011;67618;52.444;21.192;2023-04-06T18:43:09;516.70;;;136.60;;
78342;SDS011;67618;52.444;21.192;2023-04-06T18:48:11;555.40;;;166.60;;
78342;SDS011;67618;52.444;21.192;2023-04-06T18:53:13;332.40;;;85.50;;
78342;SDS011;67618;52.444;21.192;2023-04-06T18:58:15;58.00;;;17.40;;
78342;SDS011;67618;52.444;21.192;2023-04-06T19:03:16;89.60;;;24.90;;
78342;SDS011;67618;52.444;21.192;2023-04-06T19:08:18;47.60;;;14.70;;
78342;SDS011;67618;52.444;21.192;2023-04-06T19:13:19;103.50;;;32.20;;
78342;SDS011;67618;52.444;21.192;2023-04-06T19:18:20;69.30;;;21.70;;
78342;SDS011;67618;52.444;21.192;2023-04-06T19:23:22;20.30;;;8.90;;
78342;SDS011;67618;52.444;21.192;2023-04-06T19:28:23;26.90;;;10.30;;
78342;SDS011;67618;52.444;21.192;2023-04-06T19:33:25;18.50;;;7.70;;
78342;SDS011;67618;52.444;21.192;2023-04-06T19:38:26;34.60;;;10.10;;
78342;SDS011;67618;52.444;21.192;2023-04-06T19:43:28;114.40;;;30.70;;
78342;SDS011;67618;52.444;21.192;2023-04-06T19:48:30;84.40;;;23.90;;
78342;SDS011;67618;52.444;21.192;2023-04-06T19:53:32;66.70;;;18.00;;
78342;SDS011;67618;52.444;21.192;2023-04-06T19:58:34;56.50;;;16.70;;
78342;SDS011;67618;52.444;21.192;2023-04-06T20:18:41;38.00;;;12.90;;
78342;SDS011;67618;52.444;21.192;2023-04-06T20:23:43;292.50;;;73.50;;
78342;SDS011;67618;52.444;21.192;2023-04-06T20:28:44;105.40;;;30.60;;
78342;SDS011;67618;52.444;21.192;2023-04-06T20:33:46;91.60;;;25.60;;
78342;SDS011;67618;52.444;21.192;2023-04-06T20:38:47;126.70;;;33.10;;
78342;SDS011;67618;52.444;21.192;2023-04-06T20:43:48;140.50;;;41.70;;
78342;SDS011;67618;52.444;21.192;2023-04-06T20:48:51;180.70;;;54.30;;
78342;SDS011;67618;52.444;21.192;2023-04-06T20:58:57;66.70;;;22.10;;
78342;SDS011;67618;52.444;21.192;2023-04-06T21:03:59;115.70;;;39.50;;
78342;SDS011;67618;52.444;21.192;2023-04-06T21:09:02;214.30;;;68.80;;
78342;SDS011;67618;52.444;21.192;2023-04-06T21:14:04;59.40;;;21.40;;
78342;SDS011;67618;52.444;21.192;2023-04-06T21:19:06;71.20;;;22.90;;
78342;SDS011;67618;52.444;21.192;2023-04-06T21:24:07;102.80;;;34.60;;
78342;SDS011;67618;52.444;21.192;2023-04-06T21:29:09;67.60;;;23.80;;
78342;SDS011;67618;52.444;21.192;2023-04-06T21:34:10;85.80;;;29.90;;
78342;SDS011;67618;52.444;21.192;2023-04-06T21:39:12;97.60;;;34.10;;
78342;SDS011;67618;52.444;21.192;2023-04-06T21:44:14;62.60;;;24.60;;
78342;SDS011;67618;52.444;21.192;2023-04-06T21:49:15;82.60;;;32.00;;
78342;SDS011;67618;52.444;21.192;2023-04-06T21:54:17;22.90;;;11.20;;
78342;SDS011;67618;52.444;21.192;2023-04-06T21:59:18;80.80;;;29.80;;
78342;SDS011;67618;52.444;21.192;2023-04-06T22:04:20;71.20;;;27.60;;
78342;SDS011;67618;52.444;21.192;2023-04-06T22:09:23;75.00;;;30.20;;
78342;SDS011;67618;52.444;21.192;2023-04-06T22:14:24;94.90;;;36.10;;
78342;SDS011;67618;52.444;21.192;2023-04-06T22:19:25;62.00;;;26.50;;
78342;SDS011;67618;52.444;21.192;2023-04-06T22:24:27;44.60;;;18.50;;
78342;SDS011;67618;52.444;21.192;2023-04-06T22:29:28;48.70;;;21.50;;
78342;SDS011;67618;52.444;21.192;2023-04-06T22:34:30;55.00;;;24.90;;
78342;SDS011;67618;52.444;21.192;2023-04-06T22:39:31;35.80;;;16.20;;
78342;SDS011;67618;52.444;21.192;2023-04-06T22:44:32;16.40;;;10.00;;
78342;SDS011;67618;52.444;21.192;2023-04-06T22:49:34;8.80;;;4.80;;
78342;SDS011;67618;52.444;21.192;2023-04-06T22:54:35;9.10;;;5.70;;
78342;SDS011;67618;52.444;21.192;2023-04-06T22:59:36;12.00;;;5.80;;
78342;SDS011;67618;52.444;21.192;2023-04-06T23:04:38;10.80;;;6.50;;
78342;SDS011;67618;52.444;21.192;2023-04-06T23:09:42;11.40;;;5.90;;
78342;SDS011;67618;52.444;21.192;2023-04-06T23:14:44;8.50;;;5.20;;
78342;SDS011;67618;52.444;21.192;2023-04-06T23:19:46;8.20;;;5.10;;
78342;SDS011;67618;52.444;21.192;2023-04-06T23:24:48;13.00;;;7.20;;
78342;SDS011;67618;52.444;21.192;2023-04-06T23:29:50;8.80;;;5.80;;
78342;SDS011;67618;52.444;21.192;2023-04-06T23:34:51;21.50;;;14.80;;
78342;SDS011;67618;52.444;21.192;2023-04-06T23:39:53;14.80;;;9.90;;
78342;SDS011;67618;52.444;21.192;2023-04-06T23:44:54;11.10;;;6.90;;
78342;SDS011;67618;52.444;21.192;2023-04-06T23:49:56;12.80;;;7.70;;
78342;SDS011;67618;52.444;21.192;2023-04-06T23:54:58;12.60;;;7.60;;
78342;SDS011;67618;52.444;21.192;2023-04-06T23:59:59;15.70;;;8.20;;
